Nashotah, WI

06:25 PM CST del 26 Febbraio 2015 (GMT -0600)
West Bend Municipal | Change Station
CLOSE
Current Station
Aeroporto
Location: West Bend,
Altitudine: 886 ft
Stazioni meteo nelle vicinanze
Avvisi attivi: Special Statement

Alt. 886 ft 43.42 °N, 88.13 °W | Updated 15 minutes ago

Sereno
Sereno
9 °F
Sembra 9 °F
N
0
Vento Variabile Vento da Nord

Oggi
Massima -- | Minima -- °F
--% Possibilità di precip.
Ieri
Massima -- | Minima -- °F
Precip. -- in
6:34 AM 5:38 PM
Gobba a ponente, 63% visible
Pressione 30.34 in
Visibilità 10.0 miglia
Nuvole Sereno
Punto di rugiada -6 °F
Umidità 52%
Piovosità 0.00 in
Spessore del manto nevoso Non disponibile.
Raggi UV 0 fuori da 12
Polline .40 fuori da 12
Qualità dell'aria Non disponibile.
Flu Activity Non disponibile.
METAR KETB 270010Z AUTO 00000KT 10SM CLR M13/M21 A3034 RMK AO2

More Conditions Fewer Conditions

Pressione 30.34 in
Visibilità 10.0 miglia
Nuvole Sereno
Punto di rugiada -6 °F
Umidità 52%
Piovosità 0.00 in
Spessore del manto nevoso Non disponibile.
Raggi UV 0 fuori da 12
Polline .40 fuori da 12
Qualità dell'aria Non disponibile.
Flu Activity Non disponibile.
METAR KETB 270010Z AUTO 00000KT 10SM CLR M13/M21 A3034 RMK AO2

More Conditions Fewer Conditions

10-Day Weather Forecast

Almanac

Astronomia

Feb. 26, 2015 Alba Tramonto
Ora attuale
Crepuscolo civile
Crepuscolo nautico
Crepuscolo astronomico
Luna
Estensione della luce visibile
Lunghezza del giorno
Tomorrow will be .
, % of the Moon is Illuminated

Gli estremi di oggi

State Highs State Lows

Community

WunderPhotos

Upload Photos

1,800,543 foto caricate!

WunderBlogs® & News

Nearby

Qualità dell'aria

  Qualità dell'aria Indice AQ Inquinante
Not available.

Profondità neve

Stazione Profondità Altitudine

Attività sismica

Città  Distanza Mag. Data & Ora
Minimo Magnitudo Mostrato è 2.5.

Temperature delle acque costiere

Località Temperatura

Stazioni meteo nelle vicinanze

Special Statement
Statement as of 02:44 PM CST del 26 Febbraio 2015

... Bitterly cold wind chills return tonight...

An Arctic air mass will move into the region later tonight into
Friday morning... along with an area of high pressure from the
west. Winds will weaken as the high moves into the region. Clear
skies tonight will promote cooler conditions as well. Wind chill
values will approach 20 below zero in our forecast area. The
coldest wind chills will be between 4 and 7 am.

If going out tonight... be sure to dress in layers and limit
exposure.